createdAt,value
2022-08-26T00:01:31.924Z,92640.25
2022-08-26T00:03:58.978Z,92636.34
2022-08-26T00:06:25.731Z,92632.91
2022-08-26T00:08:52.422Z,92639.44
2022-08-26T00:11:26.795Z,92639.72
2022-08-26T00:13:54.853Z,92638.94
2022-08-26T00:16:23.524Z,92641.56
2022-08-26T00:18:50.627Z,92638.34
2022-08-26T00:21:17.640Z,92636.00
2022-08-26T00:23:44.518Z,92631.56
2022-08-26T00:26:11.638Z,92628.75
2022-08-26T00:28:40.372Z,92638.56
2022-08-26T00:31:07.316Z,92625.44
2022-08-26T00:33:38.164Z,92635.56
2022-08-26T00:36:05.967Z,92637.63
2022-08-26T00:38:35.221Z,92630.56
2022-08-26T00:41:05.587Z,92638.81
2022-08-26T00:43:47.637Z,92640.41
2022-08-26T00:46:19.517Z,92641.84
2022-08-26T00:48:49.545Z,92639.53
2022-08-26T00:51:20.004Z,92641.09
2022-08-26T00:53:53.603Z,92634.16
2022-08-26T00:56:31.796Z,92639.47
2022-08-26T00:59:02.074Z,92636.19
2022-08-26T01:01:31.195Z,92635.66
2022-08-26T01:03:59.411Z,92633.94
2022-08-26T01:06:27.404Z,92632.31
2022-08-26T01:08:54.346Z,92631.81
2022-08-26T01:11:20.874Z,92632.91
2022-08-26T01:13:48.582Z,92633.97
2022-08-26T01:16:17.016Z,92634.97
2022-08-26T01:18:44.774Z,92635.91
2022-08-26T01:21:29.461Z,92640.41
2022-08-26T01:23:57.865Z,92638.69
2022-08-26T01:26:29.672Z,92633.56
2022-08-26T01:29:00.155Z,92635.91
2022-08-26T01:31:32.260Z,92634.34
2022-08-26T01:34:09.066Z,92638.38
2022-08-26T01:36:37.381Z,92634.34
2022-08-26T01:39:05.882Z,92635.56
2022-08-26T01:41:35.063Z,92630.47
2022-08-26T01:44:04.985Z,92634.88
2022-08-26T01:46:32.282Z,92633.47
2022-08-26T01:49:04.394Z,92633.59
2022-08-26T01:51:37.280Z,92630.28
2022-08-26T01:54:07.137Z,92634.81
2022-08-26T01:56:39.373Z,92637.19
2022-08-26T01:59:10.650Z,92636.09
2022-08-26T02:01:37.620Z,92635.09
2022-08-26T02:04:20.824Z,92639.63
2022-08-26T02:06:49.014Z,92639.03
2022-08-26T02:09:17.249Z,92646.19
2022-08-26T02:11:45.140Z,92644.44
2022-08-26T02:14:16.101Z,92636.59
2022-08-26T02:16:46.416Z,92638.75
2022-08-26T02:19:17.043Z,92641.88
2022-08-26T02:21:51.328Z,92637.66
2022-08-26T02:24:27.966Z,92640.50
2022-08-26T02:26:56.973Z,92639.34
2022-08-26T02:29:32.826Z,92638.25
2022-08-26T02:31:59.371Z,92635.78
2022-08-26T02:34:31.988Z,92636.59
2022-08-26T02:37:01.251Z,92635.22
2022-08-26T02:39:29.548Z,92628.25
2022-08-26T02:41:57.661Z,92629.31
2022-08-26T02:44:24.121Z,92629.91
2022-08-26T02:46:52.780Z,92629.72
2022-08-26T02:49:21.794Z,92623.25
2022-08-26T02:51:49.455Z,92619.31
2022-08-26T02:54:17.458Z,92624.44
2022-08-26T02:56:44.978Z,92618.94
2022-08-26T02:59:15.363Z,92620.81
2022-08-26T03:01:42.640Z,92620.53
2022-08-26T03:04:12.106Z,92618.84
2022-08-26T03:06:40.713Z,92620.13
2022-08-26T03:09:08.613Z,92620.59
2022-08-26T03:11:35.641Z,92619.03
2022-08-26T03:14:03.815Z,92623.72
2022-08-26T03:16:37.385Z,92616.00
2022-08-26T03:19:06.472Z,92614.72
2022-08-26T03:21:35.428Z,92615.91
2022-08-26T03:24:03.704Z,92619.16
2022-08-26T03:26:30.886Z,92614.44
2022-08-26T03:29:15.671Z,92615.50
2022-08-26T03:31:43.299Z,92614.44
2022-08-26T03:34:09.951Z,92620.72
2022-08-26T03:36:38.806Z,92621.00
2022-08-26T03:39:07.740Z,92613.25
2022-08-26T03:41:36.614Z,92616.19
2022-08-26T03:44:05.952Z,92615.59
2022-08-26T03:46:33.779Z,92615.09
2022-08-26T03:49:02.195Z,92618.56
2022-08-26T03:51:29.110Z,92621.31
2022-08-26T03:53:55.981Z,92622.41
2022-08-26T03:56:23.768Z,92614.03
2022-08-26T03:58:50.670Z,92613.84
2022-08-26T04:01:17.753Z,92615.13
2022-08-26T04:03:58.217Z,92603.25
2022-08-26T04:06:33.030Z,92615.13
2022-08-26T04:09:02.290Z,92615.63
2022-08-26T04:11:34.289Z,92612.69
2022-08-26T04:14:05.315Z,92616.91
2022-08-26T04:16:32.455Z,92612.69
2022-08-26T04:18:59.372Z,92616.59
2022-08-26T04:21:27.292Z,92613.84
2022-08-26T04:23:54.711Z,92614.16
2022-08-26T04:26:22.981Z,92619.16
2022-08-26T04:28:51.963Z,92612.28
2022-08-26T04:31:19.526Z,92603.25
2022-08-26T04:33:49.582Z,92613.69
2022-08-26T04:36:20.212Z,92610.72
2022-08-26T04:38:47.467Z,92616.59
2022-08-26T04:41:14.990Z,92615.84
2022-08-26T04:43:42.314Z,92611.13
2022-08-26T04:46:10.205Z,92610.81
2022-08-26T04:48:40.910Z,92610.81
2022-08-26T04:51:08.025Z,92613.28
2022-08-26T04:53:34.791Z,92611.13
2022-08-26T04:56:01.682Z,92615.34
2022-08-26T04:58:30.939Z,92613.28
2022-08-26T05:00:58.412Z,92615.44
2022-08-26T05:03:30.558Z,92621.72
2022-08-26T05:05:58.556Z,92618.00
2022-08-26T05:08:25.777Z,92613.69
2022-08-26T05:10:56.537Z,92624.44
2022-08-26T05:13:26.166Z,92623.19
2022-08-26T05:15:53.351Z,92616.00
2022-08-26T05:18:23.038Z,92623.06
2022-08-26T05:20:54.036Z,92625.44
2022-08-26T05:23:23.095Z,92624.63
2022-08-26T05:25:55.779Z,92622.00
2022-08-26T05:28:25.683Z,92628.75
2022-08-26T05:30:52.469Z,92625.41
2022-08-26T05:33:19.257Z,92626.97
2022-08-26T05:35:46.554Z,92625.31
2022-08-26T05:38:16.643Z,92626.59
2022-08-26T05:40:46.476Z,92622.84
2022-08-26T05:43:13.965Z,92624.03
2022-08-26T05:45:49.793Z,92629.31
2022-08-26T05:48:22.664Z,92627.19
2022-08-26T05:50:52.918Z,92631.47
2022-08-26T05:53:21.740Z,92626.84
2022-08-26T05:55:53.221Z,92622.53
2022-08-26T05:58:21.523Z,92623.59
2022-08-26T06:01:03.536Z,92629.38
2022-08-26T06:03:33.949Z,92633.97
2022-08-26T06:06:08.927Z,92630.81
2022-08-26T06:08:37.734Z,92640.19
2022-08-26T06:11:07.189Z,92633.22
2022-08-26T06:13:35.035Z,92638.75
2022-08-26T06:16:05.723Z,92632.72
2022-08-26T06:18:36.326Z,92634.97
2022-08-26T06:21:14.207Z,92627.34
2022-08-26T06:23:59.612Z,92638.63
2022-08-26T06:26:28.254Z,92633.22
2022-08-26T06:28:55.556Z,92636.19
2022-08-26T06:31:22.959Z,92645.63
2022-08-26T06:33:50.670Z,92643.63
2022-08-26T06:36:23.471Z,92640.34
2022-08-26T06:38:52.261Z,92647.88
2022-08-26T06:41:21.130Z,92645.72
2022-08-26T06:43:48.095Z,92645.47
2022-08-26T06:46:17.436Z,92642.84
2022-08-26T06:48:44.869Z,92644.72
2022-08-26T06:51:22.311Z,92647.41
2022-08-26T06:53:55.587Z,92646.97
2022-08-26T06:56:24.761Z,92644.50
2022-08-26T06:58:51.798Z,92638.88
2022-08-26T07:01:28.549Z,92645.31
2022-08-26T07:03:59.830Z,92647.53
2022-08-26T07:06:28.190Z,92648.50
2022-08-26T07:09:01.659Z,92648.69
2022-08-26T07:11:30.871Z,92647.28
2022-08-26T07:13:59.054Z,92643.38
2022-08-26T07:16:28.301Z,92643.69
2022-08-26T07:18:56.846Z,92646.03
2022-08-26T07:21:34.110Z,92643.03
2022-08-26T07:24:01.425Z,92642.06
2022-08-26T07:26:34.407Z,92638.78
2022-08-26T07:29:03.908Z,92640.00
2022-08-26T07:31:42.304Z,92637.16
2022-08-26T07:34:10.748Z,92633.16
2022-08-26T07:36:37.642Z,92634.03
2022-08-26T07:39:13.124Z,92649.19
2022-08-26T07:41:50.052Z,92639.03
2022-08-26T07:44:16.691Z,92645.59
2022-08-26T07:46:52.263Z,92646.00
2022-08-26T07:49:22.204Z,92645.75
2022-08-26T07:51:50.243Z,92645.03
2022-08-26T07:54:17.404Z,92641.31
2022-08-26T07:56:46.099Z,92641.03
2022-08-26T07:59:13.735Z,92640.78
2022-08-26T08:01:44.674Z,92644.44
2022-08-26T08:04:13.402Z,92644.00
2022-08-26T08:06:41.591Z,92638.25
2022-08-26T08:09:11.661Z,92647.97
2022-08-26T08:11:38.180Z,92644.06
2022-08-26T08:14:04.701Z,92647.22
2022-08-26T08:16:37.251Z,92650.25
2022-08-26T08:19:05.679Z,92650.81
2022-08-26T08:21:34.720Z,92653.47
2022-08-26T08:24:01.280Z,92653.72
2022-08-26T08:26:32.492Z,92660.06
2022-08-26T08:28:59.019Z,92649.69
2022-08-26T08:31:56.280Z,92653.34
2022-08-26T08:34:17.122Z,92647.66
2022-08-26T08:36:46.289Z,92649.63
2022-08-26T08:39:13.646Z,92661.47
2022-08-26T08:41:59.735Z,92655.63
2022-08-26T08:44:32.936Z,92659.81
2022-08-26T08:47:10.471Z,92658.22
2022-08-26T08:49:37.329Z,92657.75
2022-08-26T08:52:18.332Z,92665.03
2022-08-26T08:54:46.417Z,92660.22
2022-08-26T08:57:32.151Z,92653.94
2022-08-26T09:00:04.642Z,92658.16
2022-08-26T09:02:42.104Z,92655.69
2022-08-26T09:05:15.325Z,92653.88
2022-08-26T09:07:50.707Z,92651.03
2022-08-26T09:10:28.064Z,92652.00
2022-08-26T09:12:54.676Z,92652.91
2022-08-26T09:15:33.282Z,92649.97
2022-08-26T09:17:59.853Z,92653.16
2022-08-26T09:20:49.530Z,92645.03
2022-08-26T09:23:18.219Z,92644.78
2022-08-26T09:25:55.741Z,92651.09
2022-08-26T09:28:25.043Z,92648.16
2022-08-26T09:31:27.370Z,92655.78
2022-08-26T09:34:04.665Z,92653.75
2022-08-26T09:36:41.148Z,92644.41
2022-08-26T09:39:33.776Z,92642.25
2022-08-26T09:42:12.769Z,92642.88
2022-08-26T09:44:54.658Z,92650.31
2022-08-26T09:47:37.010Z,92643.72
2022-08-26T09:50:37.378Z,92634.47
2022-08-26T09:53:13.003Z,92625.69
2022-08-26T09:55:45.562Z,92622.94
2022-08-26T09:58:30.757Z,92612.06
2022-08-26T10:01:01.592Z,92616.94
2022-08-26T10:03:32.844Z,92600.31
2022-08-26T10:06:06.370Z,92597.56
2022-08-26T10:08:36.964Z,92607.44
2022-08-26T10:11:26.234Z,92609.03
2022-08-26T10:13:59.439Z,92604.56
2022-08-26T10:16:41.202Z,92600.97
2022-08-26T10:19:13.517Z,92596.44
2022-08-26T10:21:56.129Z,92600.34
2022-08-26T10:24:30.330Z,92594.00
2022-08-26T10:27:19.331Z,92591.13
2022-08-26T10:29:48.391Z,92580.50
2022-08-26T10:32:37.335Z,92587.66
2022-08-26T10:35:11.890Z,92584.44
2022-08-26T10:37:49.403Z,92582.09
2022-08-26T10:40:31.543Z,92585.88
2022-08-26T10:43:11.011Z,92581.13
2022-08-26T10:45:50.525Z,92579.88
2022-08-26T10:48:27.826Z,92577.19
2022-08-26T10:51:04.212Z,92578.63
2022-08-26T10:53:51.463Z,92577.91
2022-08-26T10:56:46.488Z,92573.88
2022-08-26T10:59:21.528Z,92571.22
2022-08-26T11:01:57.673Z,92570.94
2022-08-26T11:04:47.719Z,92563.16
2022-08-26T11:07:39.609Z,92568.91
2022-08-26T11:10:22.357Z,92562.53
2022-08-26T11:13:03.606Z,92558.88
2022-08-26T11:15:39.239Z,92561.34
2022-08-26T11:18:11.143Z,92556.47
2022-08-26T11:20:47.416Z,92565.78
2022-08-26T11:23:29.167Z,92552.03
2022-08-26T11:26:02.099Z,92560.63
2022-08-26T11:28:56.254Z,92555.88
2022-08-26T11:31:26.067Z,92553.50
2022-08-26T11:33:56.952Z,92548.84
2022-08-26T11:36:46.468Z,92559.19
2022-08-26T11:39:29.620Z,92561.66
2022-08-26T11:42:01.459Z,92560.13
2022-08-26T11:44:37.992Z,92561.00
2022-08-26T11:47:05.236Z,92559.47
2022-08-26T11:49:38.039Z,92559.53
2022-08-26T11:52:11.416Z,92563.72
2022-08-26T11:54:38.665Z,92570.94
2022-08-26T11:57:09.331Z,92576.97
2022-08-26T11:59:40.565Z,92574.44
2022-08-26T12:02:17.967Z,92582.09
2022-08-26T12:04:48.827Z,92575.66
2022-08-26T12:07:17.107Z,92573.84
2022-08-26T12:10:11.219Z,92583.28
2022-08-26T12:12:42.447Z,92579.81
2022-08-26T12:15:16.793Z,92572.75
2022-08-26T12:17:45.386Z,92566.72
2022-08-26T12:20:48.405Z,92578.91
2022-08-26T12:23:36.816Z,92587.19
2022-08-26T12:26:10.374Z,92594.03
2022-08-26T12:28:46.129Z,92592.25
2022-08-26T12:31:20.749Z,92588.00
2022-08-26T12:33:48.804Z,92588.56
2022-08-26T12:36:21.820Z,92591.94
2022-08-26T12:38:48.636Z,92585.72
2022-08-26T12:41:39.311Z,92590.66
2022-08-26T12:44:06.223Z,92594.53
2022-08-26T12:46:32.806Z,92609.00
2022-08-26T12:49:03.389Z,92602.41
2022-08-26T12:51:32.371Z,92608.56
2022-08-26T12:53:59.840Z,92605.53
2022-08-26T12:56:29.450Z,92601.66
2022-08-26T12:59:21.555Z,92601.84
2022-08-26T13:01:49.529Z,92597.44
2022-08-26T13:04:32.711Z,92592.50
2022-08-26T13:07:17.657Z,92594.94
2022-08-26T13:09:44.149Z,92591.53
2022-08-26T13:12:11.625Z,92594.69
2022-08-26T13:14:38.426Z,92601.84
2022-08-26T13:17:05.089Z,92596.88
2022-08-26T13:19:31.595Z,92597.72
2022-08-26T13:22:01.393Z,92596.59
2022-08-26T13:24:38.133Z,92586.28
2022-08-26T13:27:06.819Z,92595.06
2022-08-26T13:29:33.507Z,92593.41
2022-08-26T13:32:00.588Z,92592.22
2022-08-26T13:34:27.768Z,92588.66
2022-08-26T13:36:56.230Z,92589.53
2022-08-26T13:39:23.659Z,92579.94
2022-08-26T13:41:50.331Z,92578.69
2022-08-26T13:44:17.454Z,92572.19
2022-08-26T13:49:15.622Z,92573.25
2022-08-26T13:51:42.131Z,92567.03
2022-08-26T13:54:08.803Z,92556.91
2022-08-26T13:56:36.194Z,92547.66
2022-08-26T13:59:03.501Z,92540.31
2022-08-26T14:01:32.490Z,92550.53
2022-08-26T14:03:59.486Z,92551.59
2022-08-26T14:06:26.510Z,92550.31
2022-08-26T14:08:53.142Z,92552.47
2022-08-26T14:11:19.922Z,92560.28
2022-08-26T14:13:46.445Z,92553.84
2022-08-26T14:16:22.678Z,92566.81
2022-08-26T14:18:50.853Z,92573.00
2022-08-26T14:21:18.680Z,92581.22
2022-08-26T14:23:45.268Z,92583.22
2022-08-26T14:26:27.737Z,92583.44
2022-08-26T14:29:00.166Z,92586.13
2022-08-26T14:31:29.601Z,92574.88
2022-08-26T14:34:04.304Z,92575.16
2022-08-26T14:36:32.377Z,92573.38
2022-08-26T14:39:02.848Z,92568.25
2022-08-26T14:41:31.043Z,92561.81
2022-08-26T14:44:02.524Z,92556.75
2022-08-26T14:46:31.593Z,92557.03
2022-08-26T14:49:01.433Z,92550.09
2022-08-26T14:51:28.604Z,92547.84
2022-08-26T14:54:13.610Z,92547.28
2022-08-26T14:56:42.799Z,92544.94
2022-08-26T14:59:10.278Z,92550.53
2022-08-26T15:04:03.920Z,92571.91
2022-08-26T15:06:31.834Z,92573.22
2022-08-26T15:08:59.210Z,92576.81
2022-08-26T15:11:26.852Z,92577.78
2022-08-26T15:13:53.627Z,92579.34
2022-08-26T15:16:21.639Z,92597.56
2022-08-26T15:18:49.346Z,92606.56
2022-08-26T15:21:15.855Z,92616.41
2022-08-26T15:23:42.849Z,92630.66
2022-08-26T15:26:16.334Z,92619.53
2022-08-26T15:28:42.999Z,92621.25
2022-08-26T15:31:10.371Z,92614.09
2022-08-26T15:33:38.115Z,92609.69
2022-08-26T15:36:06.684Z,92609.28
2022-08-26T15:38:40.127Z,92601.59
2022-08-26T15:41:08.616Z,92583.88
2022-08-26T15:43:36.924Z,92572.66
2022-08-26T15:46:04.635Z,92575.16
2022-08-26T15:48:31.802Z,92585.97
2022-08-26T15:51:01.483Z,92577.53
2022-08-26T15:53:31.294Z,92578.09
2022-08-26T15:55:59.552Z,92564.97
2022-08-26T15:58:27.962Z,92569.38
2022-08-26T16:00:56.034Z,92579.91
2022-08-26T16:03:23.034Z,92573.81
2022-08-26T16:05:49.653Z,92571.31
2022-08-26T16:08:16.310Z,92564.84
2022-08-26T16:10:49.959Z,92567.81
2022-08-26T16:13:19.390Z,92567.69
2022-08-26T16:15:47.580Z,92568.22
2022-08-26T16:18:15.489Z,92562.94
2022-08-26T16:21:12.738Z,92561.84
2022-08-26T16:23:39.477Z,92561.38
2022-08-26T16:26:10.843Z,92557.69
2022-08-26T16:28:38.373Z,92555.31
2022-08-26T16:31:06.296Z,92550.91
2022-08-26T16:33:32.919Z,92551.63
2022-08-26T16:35:59.688Z,92554.56
2022-08-26T16:38:26.220Z,92550.97
2022-08-26T16:40:52.735Z,92562.59
2022-08-26T16:43:19.240Z,92568.47
2022-08-26T16:45:45.824Z,92573.56
2022-08-26T16:48:12.305Z,92570.13
2022-08-26T16:50:40.639Z,92573.34
2022-08-26T16:53:07.245Z,92578.50
2022-08-26T16:55:34.798Z,92587.59
2022-08-26T16:58:01.624Z,92590.56
2022-08-26T17:00:30.703Z,92588.03
2022-08-26T17:02:59.513Z,92587.81
2022-08-26T17:05:27.723Z,92588.22
2022-08-26T17:07:56.592Z,92582.84
2022-08-26T17:10:24.333Z,92586.88
2022-08-26T17:12:50.879Z,92590.19
2022-08-26T17:15:18.132Z,92590.78
2022-08-26T17:17:44.895Z,92590.94
2022-08-26T17:20:14.611Z,92588.44
2022-08-26T17:22:47.309Z,92591.91
2022-08-26T17:25:26.564Z,92594.56
2022-08-26T17:27:53.409Z,92590.03
2022-08-26T17:30:21.078Z,92598.78
2022-08-26T17:32:48.111Z,92595.31
2022-08-26T17:35:15.777Z,92586.88
2022-08-26T17:37:43.140Z,92590.75
2022-08-26T17:40:15.281Z,92597.59
2022-08-26T17:42:42.089Z,92601.19
2022-08-26T17:45:09.766Z,92595.06
2022-08-26T17:47:36.890Z,92599.50
2022-08-26T17:50:05.696Z,92592.59
2022-08-26T17:52:32.611Z,92591.94
2022-08-26T17:54:59.333Z,92595.28
2022-08-26T17:57:26.029Z,92595.13
2022-08-26T17:59:53.955Z,92603.56
2022-08-26T18:02:21.412Z,92603.75
2022-08-26T18:04:48.616Z,92609.09
2022-08-26T18:07:15.760Z,92624.28
2022-08-26T18:09:42.597Z,92634.03
2022-08-26T18:12:09.382Z,92634.69
2022-08-26T18:14:36.043Z,92643.00
2022-08-26T18:17:03.307Z,92643.63
2022-08-26T18:19:30.288Z,92638.19
2022-08-26T18:21:57.448Z,92638.97
2022-08-26T18:24:24.464Z,92634.13
2022-08-26T18:26:51.088Z,92636.47
2022-08-26T18:29:19.601Z,92639.44
2022-08-26T18:31:46.730Z,92636.94
2022-08-26T18:34:15.413Z,92641.00
2022-08-26T18:36:42.803Z,92642.91
2022-08-26T18:39:10.578Z,92653.88
2022-08-26T18:41:46.754Z,92654.50
2022-08-26T18:44:15.502Z,92649.81
2022-08-26T18:46:43.147Z,92643.22
2022-08-26T18:49:11.202Z,92630.22
2022-08-26T18:51:37.932Z,92621.88
2022-08-26T18:54:06.604Z,92618.44
2022-08-26T18:56:35.572Z,92620.44
2022-08-26T18:59:06.179Z,92632.22
2022-08-26T19:01:34.111Z,92625.31
2022-08-26T19:04:03.291Z,92633.13
2022-08-26T19:06:32.996Z,92628.28
2022-08-26T19:09:00.103Z,92632.53
2022-08-26T19:11:32.442Z,92631.16
2022-08-26T19:14:07.141Z,92629.78
2022-08-26T19:16:34.123Z,92626.66
2022-08-26T19:19:01.805Z,92619.47
2022-08-26T19:21:29.784Z,92629.50
2022-08-26T19:23:58.935Z,92634.03
2022-08-26T19:26:27.175Z,92639.84
2022-08-26T19:28:54.013Z,92646.38
2022-08-26T19:31:21.081Z,92646.88
2022-08-26T19:33:48.089Z,92652.84
2022-08-26T19:36:18.054Z,92656.75
2022-08-26T19:38:45.699Z,92665.56
2022-08-26T19:41:13.865Z,92668.38
2022-08-26T19:43:41.159Z,92678.41
2022-08-26T19:46:18.432Z,92681.22
2022-08-26T19:48:45.455Z,92687.47
2022-08-26T19:51:21.162Z,92684.50
2022-08-26T19:53:48.999Z,92677.78
2022-08-26T19:56:16.873Z,92678.56
2022-08-26T19:58:44.267Z,92682.47
2022-08-26T20:01:11.704Z,92677.94
2022-08-26T20:03:39.062Z,92680.44
2022-08-26T20:06:08.074Z,92672.13
2022-08-26T20:08:36.497Z,92677.97
2022-08-26T20:11:06.955Z,92689.69
2022-08-26T20:13:33.548Z,92683.41
2022-08-26T20:16:00.049Z,92676.41
2022-08-26T20:18:45.213Z,92681.72
2022-08-26T20:21:28.146Z,92681.72
2022-08-26T20:24:10.492Z,92673.75
2022-08-26T20:26:39.371Z,92672.31
2022-08-26T20:29:07.590Z,92669.34
2022-08-26T20:31:35.269Z,92668.41
2022-08-26T20:34:02.521Z,92669.81
2022-08-26T20:36:29.411Z,92668.41
2022-08-26T20:38:56.763Z,92669.03
2022-08-26T20:41:25.634Z,92665.25
2022-08-26T20:43:53.196Z,92670.59
2022-08-26T20:46:24.079Z,92677.00
2022-08-26T20:48:52.770Z,92659.47
2022-08-26T20:51:20.418Z,92670.59
2022-08-26T20:53:46.969Z,92663.41
2022-08-26T20:56:15.658Z,92645.72
2022-08-26T20:58:42.799Z,92646.03
2022-08-26T21:01:17.926Z,92640.09
2022-08-26T21:03:44.809Z,92638.06
2022-08-26T21:06:11.442Z,92653.22
2022-08-26T21:08:42.542Z,92651.19
2022-08-26T21:11:10.146Z,92656.69
2022-08-26T21:14:01.241Z,92663.56
2022-08-26T21:16:24.973Z,92669.34
2022-08-26T21:18:51.594Z,92662.13
2022-08-26T21:21:19.009Z,92671.84
2022-08-26T21:23:51.812Z,92673.88
2022-08-26T21:26:18.394Z,92672.47
2022-08-26T21:28:46.175Z,92671.53
2022-08-26T21:31:16.297Z,92681.84
2022-08-26T21:33:43.151Z,92678.25
2022-08-26T21:36:11.020Z,92678.72
2022-08-26T21:38:38.286Z,92672.78
2022-08-26T21:41:11.877Z,92671.69
2022-08-26T21:43:40.111Z,92669.66
2022-08-26T21:46:17.093Z,92678.72
2022-08-26T21:48:50.775Z,92677.31
2022-08-26T21:51:20.363Z,92677.78
2022-08-26T21:53:56.890Z,92675.28
2022-08-26T21:56:26.204Z,92679.97
2022-08-26T21:58:54.970Z,92685.31
2022-08-26T22:01:25.028Z,92688.44
2022-08-26T22:03:52.755Z,92692.81
2022-08-26T22:06:22.653Z,92690.16
2022-08-26T22:08:49.911Z,92689.22
2022-08-26T22:11:17.441Z,92690.28
2022-08-26T22:13:45.577Z,92695.16
2022-08-26T22:16:13.295Z,92701.25
2022-08-26T22:18:43.239Z,92707.34
2022-08-26T22:21:16.959Z,92704.84
2022-08-26T22:23:44.834Z,92705.97
2022-08-26T22:26:13.836Z,92707.53
2022-08-26T22:28:40.650Z,92715.03
2022-08-26T22:31:11.182Z,92722.38
2022-08-26T22:33:39.730Z,92718.63
2022-08-26T22:36:06.735Z,92722.84
2022-08-26T22:38:34.195Z,92721.91
2022-08-26T22:41:01.419Z,92731.78
2022-08-26T22:43:29.538Z,92726.47
2022-08-26T22:45:56.456Z,92728.50
2022-08-26T22:48:25.406Z,92727.22
2022-08-26T22:50:58.251Z,92733.94
2022-08-26T22:53:26.633Z,92733.34
2022-08-26T22:55:53.111Z,92725.94
2022-08-26T22:58:19.691Z,92729.13
2022-08-26T23:00:47.908Z,92724.72
2022-08-26T23:03:16.683Z,92735.03
2022-08-26T23:05:44.694Z,92730.81
2022-08-26T23:08:13.263Z,92733.81
2022-08-26T23:10:45.361Z,92732.38
2022-08-26T23:13:13.885Z,92734.56
2022-08-26T23:15:42.029Z,92738.34
2022-08-26T23:18:09.590Z,92736.00
2022-08-26T23:20:36.709Z,92737.56
2022-08-26T23:23:03.315Z,92724.84
2022-08-26T23:25:32.317Z,92729.25
2022-08-26T23:28:00.916Z,92730.81
2022-08-26T23:30:30.743Z,92726.75
2022-08-26T23:32:58.398Z,92718.47
2022-08-26T23:35:25.260Z,92718.16
2022-08-26T23:37:53.114Z,92714.72
2022-08-26T23:40:32.284Z,92719.25
2022-08-26T23:43:00.797Z,92710.97
2022-08-26T23:45:28.015Z,92702.03
2022-08-26T23:47:54.850Z,92700.31
2022-08-26T23:50:44.126Z,92693.28
2022-08-26T23:53:11.145Z,92699.69
2022-08-26T23:55:39.203Z,92690.91
2022-08-26T23:58:06.369Z,92689.81
